sensor_id;sensor_type;location;lat;lon;timestamp;temperature;humidity
6724;DHT22;3399;52.530;13.304;2023-02-14T00:01:56;6.70;99.90
6724;DHT22;3399;52.530;13.304;2023-02-14T00:04:22;6.70;99.90
6724;DHT22;3399;52.530;13.304;2023-02-14T00:06:47;6.60;99.90
6724;DHT22;3399;52.530;13.304;2023-02-14T00:09:15;6.50;99.90
6724;DHT22;3399;52.530;13.304;2023-02-14T00:11:42;6.40;99.90
6724;DHT22;3399;52.530;13.304;2023-02-14T00:14:08;6.40;99.90
6724;DHT22;3399;52.530;13.304;2023-02-14T00:16:52;6.40;99.90
6724;DHT22;3399;52.530;13.304;2023-02-14T00:19:19;6.50;99.90
6724;DHT22;3399;52.530;13.304;2023-02-14T00:21:45;6.50;99.90
6724;DHT22;3399;52.530;13.304;2023-02-14T00:24:19;6.60;99.90
6724;DHT22;3399;52.530;13.304;2023-02-14T00:26:46;6.60;99.90
6724;DHT22;3399;52.530;13.304;2023-02-14T00:29:14;6.60;99.90
6724;DHT22;3399;52.530;13.304;2023-02-14T00:31:40;6.60;99.90
6724;DHT22;3399;52.530;13.304;2023-02-14T00:34:07;6.70;99.90
6724;DHT22;3399;52.530;13.304;2023-02-14T00:36:33;6.80;99.90
6724;DHT22;3399;52.530;13.304;2023-02-14T00:39:05;6.80;99.90
6724;DHT22;3399;52.530;13.304;2023-02-14T00:41:31;6.80;99.90
6724;DHT22;3399;52.530;13.304;2023-02-14T00:43:56;6.60;99.90
6724;DHT22;3399;52.530;13.304;2023-02-14T00:46:23;6.60;99.90
6724;DHT22;3399;52.530;13.304;2023-02-14T00:48:48;6.50;99.90
6724;DHT22;3399;52.530;13.304;2023-02-14T00:51:15;6.60;99.90
6724;DHT22;3399;52.530;13.304;2023-02-14T00:53:43;6.70;99.90
6724;DHT22;3399;52.530;13.304;2023-02-14T00:56:08;6.80;99.90
6724;DHT22;3399;52.530;13.304;2023-02-14T00:58:34;6.80;99.90
6724;DHT22;3399;52.530;13.304;2023-02-14T01:01:00;6.60;99.90
6724;DHT22;3399;52.530;13.304;2023-02-14T01:03:26;6.40;99.90
6724;DHT22;3399;52.530;13.304;2023-02-14T01:05:51;6.40;99.90
6724;DHT22;3399;52.530;13.304;2023-02-14T01:08:17;6.40;99.90
6724;DHT22;3399;52.530;13.304;2023-02-14T01:10:43;6.40;99.90
6724;DHT22;3399;52.530;13.304;2023-02-14T01:13:13;6.30;99.90
6724;DHT22;3399;52.530;13.304;2023-02-14T01:15:56;6.40;99.90
6724;DHT22;3399;52.530;13.304;2023-02-14T01:18:22;6.60;99.90
6724;DHT22;3399;52.530;13.304;2023-02-14T01:20:47;6.50;99.90
6724;DHT22;3399;52.530;13.304;2023-02-14T01:23:12;6.30;99.90
6724;DHT22;3399;52.530;13.304;2023-02-14T01:25:38;6.20;99.90
6724;DHT22;3399;52.530;13.304;2023-02-14T01:28:05;6.20;99.90
6724;DHT22;3399;52.530;13.304;2023-02-14T01:30:30;6.30;99.90
6724;DHT22;3399;52.530;13.304;2023-02-14T01:32:56;6.30;99.90
6724;DHT22;3399;52.530;13.304;2023-02-14T01:35:21;6.30;99.90
6724;DHT22;3399;52.530;13.304;2023-02-14T01:37:47;6.40;99.90
6724;DHT22;3399;52.530;13.304;2023-02-14T01:40:13;6.40;99.90
6724;DHT22;3399;52.530;13.304;2023-02-14T01:42:39;6.40;99.90
6724;DHT22;3399;52.530;13.304;2023-02-14T01:45:08;6.40;99.90
6724;DHT22;3399;52.530;13.304;2023-02-14T01:47:40;6.40;99.90
6724;DHT22;3399;52.530;13.304;2023-02-14T01:50:19;6.30;99.90
6724;DHT22;3399;52.530;13.304;2023-02-14T01:52:52;6.30;99.90
6724;DHT22;3399;52.530;13.304;2023-02-14T01:55:22;6.40;99.90
6724;DHT22;3399;52.530;13.304;2023-02-14T01:57:52;6.30;99.90
6724;DHT22;3399;52.530;13.304;2023-02-14T02:00:19;6.40;99.90
6724;DHT22;3399;52.530;13.304;2023-02-14T02:03:04;6.50;99.90
6724;DHT22;3399;52.530;13.304;2023-02-14T02:05:31;6.50;99.90
6724;DHT22;3399;52.530;13.304;2023-02-14T02:07:58;6.40;99.90
6724;DHT22;3399;52.530;13.304;2023-02-14T02:10:29;6.40;99.90
6724;DHT22;3399;52.530;13.304;2023-02-14T02:12:55;6.50;99.90
6724;DHT22;3399;52.530;13.304;2023-02-14T02:15:25;6.60;99.90
6724;DHT22;3399;52.530;13.304;2023-02-14T02:18:07;6.60;99.90
6724;DHT22;3399;52.530;13.304;2023-02-14T02:21:10;6.60;99.90
6724;DHT22;3399;52.530;13.304;2023-02-14T02:24:27;6.60;99.90
6724;DHT22;3399;52.530;13.304;2023-02-14T02:35:39;6.80;99.90
6724;DHT22;3399;52.530;13.304;2023-02-14T02:39:01;6.80;99.90
6724;DHT22;3399;52.530;13.304;2023-02-14T02:44:39;6.60;99.90
6724;DHT22;3399;52.530;13.304;2023-02-14T02:47:27;6.70;99.90
6724;DHT22;3399;52.530;13.304;2023-02-14T02:50:06;7.00;99.90
6724;DHT22;3399;52.530;13.304;2023-02-14T02:53:00;6.80;99.90
6724;DHT22;3399;52.530;13.304;2023-02-14T02:55:41;6.80;99.90
6724;DHT22;3399;52.530;13.304;2023-02-14T02:58:32;6.60;99.90
6724;DHT22;3399;52.530;13.304;2023-02-14T03:01:01;6.50;99.90
6724;DHT22;3399;52.530;13.304;2023-02-14T03:03:29;6.40;99.90
6724;DHT22;3399;52.530;13.304;2023-02-14T03:06:14;6.40;99.90
6724;DHT22;3399;52.530;13.304;2023-02-14T03:08:39;6.50;99.90
6724;DHT22;3399;52.530;13.304;2023-02-14T03:11:05;6.70;99.90
6724;DHT22;3399;52.530;13.304;2023-02-14T03:13:41;6.70;99.90
6724;DHT22;3399;52.530;13.304;2023-02-14T03:16:32;6.60;99.90
6724;DHT22;3399;52.530;13.304;2023-02-14T03:19:20;6.50;99.90
6724;DHT22;3399;52.530;13.304;2023-02-14T03:22:13;6.40;99.90
6724;DHT22;3399;52.530;13.304;2023-02-14T03:30:35;6.90;99.90
6724;DHT22;3399;52.530;13.304;2023-02-14T03:33:29;6.80;99.90
6724;DHT22;3399;52.530;13.304;2023-02-14T03:36:17;7.00;99.90
6724;DHT22;3399;52.530;13.304;2023-02-14T03:38:48;6.90;99.90
6724;DHT22;3399;52.530;13.304;2023-02-14T03:41:21;7.00;99.90
6724;DHT22;3399;52.530;13.304;2023-02-14T03:43:51;6.80;99.90
6724;DHT22;3399;52.530;13.304;2023-02-14T03:46:28;6.60;99.90
6724;DHT22;3399;52.530;13.304;2023-02-14T03:48:57;6.60;99.90
6724;DHT22;3399;52.530;13.304;2023-02-14T03:51:25;6.70;99.90
6724;DHT22;3399;52.530;13.304;2023-02-14T03:53:54;6.80;99.90
6724;DHT22;3399;52.530;13.304;2023-02-14T03:59:17;6.70;99.90
6724;DHT22;3399;52.530;13.304;2023-02-14T04:01:54;6.80;99.90
6724;DHT22;3399;52.530;13.304;2023-02-14T04:04:23;6.80;99.90
6724;DHT22;3399;52.530;13.304;2023-02-14T04:06:49;7.00;99.90
6724;DHT22;3399;52.530;13.304;2023-02-14T04:09:15;7.10;99.90
6724;DHT22;3399;52.530;13.304;2023-02-14T04:11:41;6.90;99.90
6724;DHT22;3399;52.530;13.304;2023-02-14T04:14:06;6.80;99.90
6724;DHT22;3399;52.530;13.304;2023-02-14T04:16:32;6.70;99.90
6724;DHT22;3399;52.530;13.304;2023-02-14T04:19:20;6.60;99.90
6724;DHT22;3399;52.530;13.304;2023-02-14T04:21:50;6.50;99.90
6724;DHT22;3399;52.530;13.304;2023-02-14T04:24:16;6.60;99.90
6724;DHT22;3399;52.530;13.304;2023-02-14T04:26:42;6.60;99.90
6724;DHT22;3399;52.530;13.304;2023-02-14T04:29:21;6.50;99.90
6724;DHT22;3399;52.530;13.304;2023-02-14T04:31:47;6.40;99.90
6724;DHT22;3399;52.530;13.304;2023-02-14T04:34:12;6.40;99.90
6724;DHT22;3399;52.530;13.304;2023-02-14T04:36:38;6.40;99.90
6724;DHT22;3399;52.530;13.304;2023-02-14T04:39:04;6.50;99.90
6724;DHT22;3399;52.530;13.304;2023-02-14T04:41:29;6.60;99.90
6724;DHT22;3399;52.530;13.304;2023-02-14T04:43:55;6.60;99.90
6724;DHT22;3399;52.530;13.304;2023-02-14T04:46:20;6.50;99.90
6724;DHT22;3399;52.530;13.304;2023-02-14T04:48:46;6.50;99.90
6724;DHT22;3399;52.530;13.304;2023-02-14T04:51:11;6.60;99.90
6724;DHT22;3399;52.530;13.304;2023-02-14T04:53:37;6.60;99.90
6724;DHT22;3399;52.530;13.304;2023-02-14T04:56:05;6.70;99.90
6724;DHT22;3399;52.530;13.304;2023-02-14T04:58:31;6.80;99.90
6724;DHT22;3399;52.530;13.304;2023-02-14T05:00:56;6.70;99.90
6724;DHT22;3399;52.530;13.304;2023-02-14T05:03:22;6.80;99.90
6724;DHT22;3399;52.530;13.304;2023-02-14T05:05:47;6.80;99.90
6724;DHT22;3399;52.530;13.304;2023-02-14T05:08:13;6.80;99.90
6724;DHT22;3399;52.530;13.304;2023-02-14T05:10:39;6.90;99.90
6724;DHT22;3399;52.530;13.304;2023-02-14T05:13:05;6.70;99.90
6724;DHT22;3399;52.530;13.304;2023-02-14T05:15:30;6.60;99.90
6724;DHT22;3399;52.530;13.304;2023-02-14T05:17:56;6.70;99.90
6724;DHT22;3399;52.530;13.304;2023-02-14T05:20:26;6.80;99.90
6724;DHT22;3399;52.530;13.304;2023-02-14T05:22:52;6.70;99.90
6724;DHT22;3399;52.530;13.304;2023-02-14T05:25:18;6.70;99.90
6724;DHT22;3399;52.530;13.304;2023-02-14T05:27:43;6.60;99.90
6724;DHT22;3399;52.530;13.304;2023-02-14T05:30:09;6.50;99.90
6724;DHT22;3399;52.530;13.304;2023-02-14T05:32:35;6.40;99.90
6724;DHT22;3399;52.530;13.304;2023-02-14T05:35:00;6.60;99.90
6724;DHT22;3399;52.530;13.304;2023-02-14T05:37:26;6.60;99.90
6724;DHT22;3399;52.530;13.304;2023-02-14T05:39:51;6.60;99.90
6724;DHT22;3399;52.530;13.304;2023-02-14T05:42:17;6.50;99.90
6724;DHT22;3399;52.530;13.304;2023-02-14T05:44:42;6.50;99.90
6724;DHT22;3399;52.530;13.304;2023-02-14T05:47:08;6.40;99.90
6724;DHT22;3399;52.530;13.304;2023-02-14T05:49:34;6.30;99.90
6724;DHT22;3399;52.530;13.304;2023-02-14T05:52:00;6.30;99.90
6724;DHT22;3399;52.530;13.304;2023-02-14T05:54:25;6.40;99.90
6724;DHT22;3399;52.530;13.304;2023-02-14T05:56:50;6.30;99.90
6724;DHT22;3399;52.530;13.304;2023-02-14T05:59:16;6.20;99.90
6724;DHT22;3399;52.530;13.304;2023-02-14T06:01:41;6.20;99.90
6724;DHT22;3399;52.530;13.304;2023-02-14T06:04:07;6.20;99.90
6724;DHT22;3399;52.530;13.304;2023-02-14T06:06:32;6.20;99.90
6724;DHT22;3399;52.530;13.304;2023-02-14T06:08:58;6.20;99.90
6724;DHT22;3399;52.530;13.304;2023-02-14T06:11:23;6.20;99.90
6724;DHT22;3399;52.530;13.304;2023-02-14T06:13:49;6.20;99.90
6724;DHT22;3399;52.530;13.304;2023-02-14T06:16:14;6.20;99.90
6724;DHT22;3399;52.530;13.304;2023-02-14T06:18:40;6.20;99.90
6724;DHT22;3399;52.530;13.304;2023-02-14T06:21:05;6.20;99.90
6724;DHT22;3399;52.530;13.304;2023-02-14T06:23:31;6.20;99.90
6724;DHT22;3399;52.530;13.304;2023-02-14T06:25:56;6.30;99.90
6724;DHT22;3399;52.530;13.304;2023-02-14T06:28:21;6.30;99.90
6724;DHT22;3399;52.530;13.304;2023-02-14T06:30:47;6.30;99.90
6724;DHT22;3399;52.530;13.304;2023-02-14T06:33:13;6.40;99.90
6724;DHT22;3399;52.530;13.304;2023-02-14T06:35:38;6.50;99.90
6724;DHT22;3399;52.530;13.304;2023-02-14T06:38:04;6.50;99.90
6724;DHT22;3399;52.530;13.304;2023-02-14T06:40:29;6.50;99.90
6724;DHT22;3399;52.530;13.304;2023-02-14T06:42:55;6.50;99.90
6724;DHT22;3399;52.530;13.304;2023-02-14T06:45:22;6.70;99.90
6724;DHT22;3399;52.530;13.304;2023-02-14T06:47:47;6.80;99.90
6724;DHT22;3399;52.530;13.304;2023-02-14T06:50:12;6.80;99.90
6724;DHT22;3399;52.530;13.304;2023-02-14T06:52:38;6.70;99.90
6724;DHT22;3399;52.530;13.304;2023-02-14T06:55:04;6.60;99.90
6724;DHT22;3399;52.530;13.304;2023-02-14T06:57:30;6.60;99.90
6724;DHT22;3399;52.530;13.304;2023-02-14T06:59:55;6.60;99.90
6724;DHT22;3399;52.530;13.304;2023-02-14T07:02:21;6.70;99.90
6724;DHT22;3399;52.530;13.304;2023-02-14T07:04:46;6.70;99.90
6724;DHT22;3399;52.530;13.304;2023-02-14T07:07:12;6.70;99.90
6724;DHT22;3399;52.530;13.304;2023-02-14T07:09:37;6.70;99.90
6724;DHT22;3399;52.530;13.304;2023-02-14T07:12:03;6.70;99.90
6724;DHT22;3399;52.530;13.304;2023-02-14T07:14:28;6.80;99.90
6724;DHT22;3399;52.530;13.304;2023-02-14T07:16:54;6.90;99.90
6724;DHT22;3399;52.530;13.304;2023-02-14T07:19:19;6.80;99.90
6724;DHT22;3399;52.530;13.304;2023-02-14T07:21:45;6.80;99.90
6724;DHT22;3399;52.530;13.304;2023-02-14T07:24:10;6.90;99.90
6724;DHT22;3399;52.530;13.304;2023-02-14T07:26:36;7.00;99.90
6724;DHT22;3399;52.530;13.304;2023-02-14T07:29:01;7.10;99.90
6724;DHT22;3399;52.530;13.304;2023-02-14T07:31:27;7.00;99.90
6724;DHT22;3399;52.530;13.304;2023-02-14T07:33:52;7.20;99.90
6724;DHT22;3399;52.530;13.304;2023-02-14T07:36:18;7.10;99.90
6724;DHT22;3399;52.530;13.304;2023-02-14T07:38:43;7.10;99.90
6724;DHT22;3399;52.530;13.304;2023-02-14T07:41:09;7.10;99.90
6724;DHT22;3399;52.530;13.304;2023-02-14T07:43:34;7.10;99.90
6724;DHT22;3399;52.530;13.304;2023-02-14T07:46:00;7.10;99.90
6724;DHT22;3399;52.530;13.304;2023-02-14T07:48:26;7.10;99.90
6724;DHT22;3399;52.530;13.304;2023-02-14T07:50:52;7.10;99.90
6724;DHT22;3399;52.530;13.304;2023-02-14T07:53:21;7.20;99.90
6724;DHT22;3399;52.530;13.304;2023-02-14T07:55:48;7.20;99.90
6724;DHT22;3399;52.530;13.304;2023-02-14T07:58:15;7.10;99.90
6724;DHT22;3399;52.530;13.304;2023-02-14T08:00:40;7.10;99.90
6724;DHT22;3399;52.530;13.304;2023-02-14T08:03:06;7.00;99.90
6724;DHT22;3399;52.530;13.304;2023-02-14T08:05:31;6.90;99.90
6724;DHT22;3399;52.530;13.304;2023-02-14T08:07:57;6.90;99.90
6724;DHT22;3399;52.530;13.304;2023-02-14T08:10:24;6.90;99.90
6724;DHT22;3399;52.530;13.304;2023-02-14T08:12:50;6.90;99.90
6724;DHT22;3399;52.530;13.304;2023-02-14T08:15:30;7.00;99.90
6724;DHT22;3399;52.530;13.304;2023-02-14T08:18:14;7.10;99.90
6724;DHT22;3399;52.530;13.304;2023-02-14T08:20:42;7.30;99.90
6724;DHT22;3399;52.530;13.304;2023-02-14T08:23:08;7.40;99.90
6724;DHT22;3399;52.530;13.304;2023-02-14T08:25:34;7.50;99.90
6724;DHT22;3399;52.530;13.304;2023-02-14T08:28:04;7.50;99.90
6724;DHT22;3399;52.530;13.304;2023-02-14T08:30:30;7.50;99.90
6724;DHT22;3399;52.530;13.304;2023-02-14T08:32:56;7.60;99.90
6724;DHT22;3399;52.530;13.304;2023-02-14T08:35:21;7.60;99.90
6724;DHT22;3399;52.530;13.304;2023-02-14T08:37:47;7.60;99.90
6724;DHT22;3399;52.530;13.304;2023-02-14T08:40:12;7.80;99.90
6724;DHT22;3399;52.530;13.304;2023-02-14T08:42:38;7.80;99.90
6724;DHT22;3399;52.530;13.304;2023-02-14T08:45:04;7.80;99.90
6724;DHT22;3399;52.530;13.304;2023-02-14T08:47:31;7.80;99.90
6724;DHT22;3399;52.530;13.304;2023-02-14T08:50:01;8.00;99.90
6724;DHT22;3399;52.530;13.304;2023-02-14T08:52:27;8.00;99.90
6724;DHT22;3399;52.530;13.304;2023-02-14T08:54:52;7.90;99.90
6724;DHT22;3399;52.530;13.304;2023-02-14T08:57:18;8.00;99.90
6724;DHT22;3399;52.530;13.304;2023-02-14T08:59:44;8.00;99.90
6724;DHT22;3399;52.530;13.304;2023-02-14T09:02:12;8.10;99.90
6724;DHT22;3399;52.530;13.304;2023-02-14T09:04:38;8.10;99.90
6724;DHT22;3399;52.530;13.304;2023-02-14T09:07:04;8.10;99.90
6724;DHT22;3399;52.530;13.304;2023-02-14T09:09:30;7.90;99.90
6724;DHT22;3399;52.530;13.304;2023-02-14T09:11:56;7.80;99.90
6724;DHT22;3399;52.530;13.304;2023-02-14T09:14:22;7.70;99.90
6724;DHT22;3399;52.530;13.304;2023-02-14T09:16:49;7.80;99.90
6724;DHT22;3399;52.530;13.304;2023-02-14T09:19:15;7.80;99.90
6724;DHT22;3399;52.530;13.304;2023-02-14T09:21:40;7.90;99.90
6724;DHT22;3399;52.530;13.304;2023-02-14T09:24:05;8.00;99.90
6724;DHT22;3399;52.530;13.304;2023-02-14T09:26:31;8.00;99.90
6724;DHT22;3399;52.530;13.304;2023-02-14T09:28:57;8.00;99.90
6724;DHT22;3399;52.530;13.304;2023-02-14T09:31:23;8.10;99.90
6724;DHT22;3399;52.530;13.304;2023-02-14T09:33:50;8.10;99.90
6724;DHT22;3399;52.530;13.304;2023-02-14T09:36:16;8.20;99.90
6724;DHT22;3399;52.530;13.304;2023-02-14T09:39:00;8.30;99.90
6724;DHT22;3399;52.530;13.304;2023-02-14T09:44:11;8.50;99.90
6724;DHT22;3399;52.530;13.304;2023-02-14T09:46:49;8.60;99.90
6724;DHT22;3399;52.530;13.304;2023-02-14T09:49:18;8.60;99.90
6724;DHT22;3399;52.530;13.304;2023-02-14T09:51:50;8.70;99.90
6724;DHT22;3399;52.530;13.304;2023-02-14T09:54:23;8.70;99.90
6724;DHT22;3399;52.530;13.304;2023-02-14T09:57:09;8.60;99.90
6724;DHT22;3399;52.530;13.304;2023-02-14T09:59:56;8.60;99.90
6724;DHT22;3399;52.530;13.304;2023-02-14T10:05:29;8.80;99.90
6724;DHT22;3399;52.530;13.304;2023-02-14T10:08:07;8.70;99.90
6724;DHT22;3399;52.530;13.304;2023-02-14T10:10:45;8.80;99.90
6724;DHT22;3399;52.530;13.304;2023-02-14T10:13:34;8.90;99.90
6724;DHT22;3399;52.530;13.304;2023-02-14T10:19:12;8.70;99.90
6724;DHT22;3399;52.530;13.304;2023-02-14T10:21:51;8.60;99.90
6724;DHT22;3399;52.530;13.304;2023-02-14T10:24:26;8.60;99.90
6724;DHT22;3399;52.530;13.304;2023-02-14T10:26:57;8.70;99.90
6724;DHT22;3399;52.530;13.304;2023-02-14T10:29:25;8.70;99.90
6724;DHT22;3399;52.530;13.304;2023-02-14T10:31:52;8.70;99.90
6724;DHT22;3399;52.530;13.304;2023-02-14T10:37:23;8.80;99.90
6724;DHT22;3399;52.530;13.304;2023-02-14T10:42:44;8.60;99.90
6724;DHT22;3399;52.530;13.304;2023-02-14T10:48:31;8.70;99.90
6724;DHT22;3399;52.530;13.304;2023-02-14T10:51:23;8.90;99.90
6724;DHT22;3399;52.530;13.304;2023-02-14T10:56:52;9.00;99.90
6724;DHT22;3399;52.530;13.304;2023-02-14T10:59:50;9.00;99.90
6724;DHT22;3399;52.530;13.304;2023-02-14T11:02:21;8.90;99.90
6724;DHT22;3399;52.530;13.304;2023-02-14T11:04:48;8.80;99.90
6724;DHT22;3399;52.530;13.304;2023-02-14T11:07:14;8.80;99.90
6724;DHT22;3399;52.530;13.304;2023-02-14T11:09:41;8.90;99.90
6724;DHT22;3399;52.530;13.304;2023-02-14T11:12:07;8.90;99.90
6724;DHT22;3399;52.530;13.304;2023-02-14T11:14:39;8.80;99.90
6724;DHT22;3399;52.530;13.304;2023-02-14T11:17:28;8.70;99.90
6724;DHT22;3399;52.530;13.304;2023-02-14T11:19:59;8.70;99.90
6724;DHT22;3399;52.530;13.304;2023-02-14T11:22:32;8.70;99.90
6724;DHT22;3399;52.530;13.304;2023-02-14T11:25:16;8.90;99.90
6724;DHT22;3399;52.530;13.304;2023-02-14T11:27:43;8.90;99.90
6724;DHT22;3399;52.530;13.304;2023-02-14T11:30:32;8.90;99.90
6724;DHT22;3399;52.530;13.304;2023-02-14T11:32:59;8.80;99.90
6724;DHT22;3399;52.530;13.304;2023-02-14T11:35:26;8.70;99.90
6724;DHT22;3399;52.530;13.304;2023-02-14T11:37:59;8.60;99.90
6724;DHT22;3399;52.530;13.304;2023-02-14T11:40:30;8.60;99.90
6724;DHT22;3399;52.530;13.304;2023-02-14T11:42:59;8.50;99.90
6724;DHT22;3399;52.530;13.304;2023-02-14T11:48:07;8.50;99.90
6724;DHT22;3399;52.530;13.304;2023-02-14T11:50:35;8.50;99.90
6724;DHT22;3399;52.530;13.304;2023-02-14T11:53:00;8.70;99.90
6724;DHT22;3399;52.530;13.304;2023-02-14T11:55:29;8.80;99.90
6724;DHT22;3399;52.530;13.304;2023-02-14T11:57:57;8.80;99.90
6724;DHT22;3399;52.530;13.304;2023-02-14T12:00:24;8.90;99.90
6724;DHT22;3399;52.530;13.304;2023-02-14T12:02:52;9.00;99.90
6724;DHT22;3399;52.530;13.304;2023-02-14T12:05:29;9.00;99.90
6724;DHT22;3399;52.530;13.304;2023-02-14T12:07:57;9.00;99.90
6724;DHT22;3399;52.530;13.304;2023-02-14T12:10:28;8.90;99.90
6724;DHT22;3399;52.530;13.304;2023-02-14T12:13:00;8.90;99.90
6724;DHT22;3399;52.530;13.304;2023-02-14T12:20:44;9.10;99.90
6724;DHT22;3399;52.530;13.304;2023-02-14T12:28:49;8.90;99.90
6724;DHT22;3399;52.530;13.304;2023-02-14T12:31:15;8.80;99.90
6724;DHT22;3399;52.530;13.304;2023-02-14T12:33:41;8.70;99.90
6724;DHT22;3399;52.530;13.304;2023-02-14T12:36:14;8.60;99.90
6724;DHT22;3399;52.530;13.304;2023-02-14T12:38:52;8.70;99.90
6724;DHT22;3399;52.530;13.304;2023-02-14T12:41:30;8.70;99.90
6724;DHT22;3399;52.530;13.304;2023-02-14T12:44:06;8.70;99.90
6724;DHT22;3399;52.530;13.304;2023-02-14T12:55:33;8.90;99.90
6724;DHT22;3399;52.530;13.304;2023-02-14T12:58:23;8.90;99.90
6724;DHT22;3399;52.530;13.304;2023-02-14T13:06:30;8.90;99.90
6724;DHT22;3399;52.530;13.304;2023-02-14T13:09:03;8.70;99.90
6724;DHT22;3399;52.530;13.304;2023-02-14T13:11:40;8.70;99.90
6724;DHT22;3399;52.530;13.304;2023-02-14T13:14:44;8.80;99.90
6724;DHT22;3399;52.530;13.304;2023-02-14T13:22:54;9.00;99.90
6724;DHT22;3399;52.530;13.304;2023-02-14T13:25:26;8.90;99.90
6724;DHT22;3399;52.530;13.304;2023-02-14T13:27:57;8.80;99.90
6724;DHT22;3399;52.530;13.304;2023-02-14T13:30:27;8.80;99.90
6724;DHT22;3399;52.530;13.304;2023-02-14T13:32:56;8.90;99.90
6724;DHT22;3399;52.530;13.304;2023-02-14T13:35:25;8.80;99.90
6724;DHT22;3399;52.530;13.304;2023-02-14T13:37:55;8.70;99.90
6724;DHT22;3399;52.530;13.304;2023-02-14T13:40:24;8.60;99.90
6724;DHT22;3399;52.530;13.304;2023-02-14T13:42:58;8.50;99.90
6724;DHT22;3399;52.530;13.304;2023-02-14T13:48:22;8.40;99.90
6724;DHT22;3399;52.530;13.304;2023-02-14T13:50:54;8.50;99.90
6724;DHT22;3399;52.530;13.304;2023-02-14T13:53:30;8.50;99.90
6724;DHT22;3399;52.530;13.304;2023-02-14T13:55:57;8.50;99.90
6724;DHT22;3399;52.530;13.304;2023-02-14T13:58:23;8.40;99.90
6724;DHT22;3399;52.530;13.304;2023-02-14T14:00:51;8.40;99.90
6724;DHT22;3399;52.530;13.304;2023-02-14T14:06:09;8.40;99.90
6724;DHT22;3399;52.530;13.304;2023-02-14T14:08:41;8.30;99.90
6724;DHT22;3399;52.530;13.304;2023-02-14T14:13:54;8.30;99.90
6724;DHT22;3399;52.530;13.304;2023-02-14T14:21:24;8.30;99.90
6724;DHT22;3399;52.530;13.304;2023-02-14T14:24:11;8.30;99.90
6724;DHT22;3399;52.530;13.304;2023-02-14T14:27:02;8.20;99.90
6724;DHT22;3399;52.530;13.304;2023-02-14T14:29:36;8.20;99.90
6724;DHT22;3399;52.530;13.304;2023-02-14T14:37:44;8.10;99.90
6724;DHT22;3399;52.530;13.304;2023-02-14T14:42:56;8.20;99.90
6724;DHT22;3399;52.530;13.304;2023-02-14T14:45:24;8.20;99.90
6724;DHT22;3399;52.530;13.304;2023-02-14T14:47:52;8.30;99.90
6724;DHT22;3399;52.530;13.304;2023-02-14T14:50:23;8.30;99.90
6724;DHT22;3399;52.530;13.304;2023-02-14T14:53:06;8.30;99.90
6724;DHT22;3399;52.530;13.304;2023-02-14T14:55:35;8.30;99.90
6724;DHT22;3399;52.530;13.304;2023-02-14T14:58:05;8.20;99.90
6724;DHT22;3399;52.530;13.304;2023-02-14T15:00:36;8.10;99.90
6724;DHT22;3399;52.530;13.304;2023-02-14T15:05:39;7.90;99.90
6724;DHT22;3399;52.530;13.304;2023-02-14T15:08:27;7.90;99.90
6724;DHT22;3399;52.530;13.304;2023-02-14T15:11:26;7.80;99.90
6724;DHT22;3399;52.530;13.304;2023-02-14T15:14:16;8.00;99.90
6724;DHT22;3399;52.530;13.304;2023-02-14T15:17:13;7.90;99.90
6724;DHT22;3399;52.530;13.304;2023-02-14T15:19:44;7.80;99.90
6724;DHT22;3399;52.530;13.304;2023-02-14T15:22:20;7.80;99.90
6724;DHT22;3399;52.530;13.304;2023-02-14T15:24:48;7.80;99.90
6724;DHT22;3399;52.530;13.304;2023-02-14T15:27:16;7.80;99.90
6724;DHT22;3399;52.530;13.304;2023-02-14T15:29:56;7.70;99.90
6724;DHT22;3399;52.530;13.304;2023-02-14T15:32:23;7.70;99.90
6724;DHT22;3399;52.530;13.304;2023-02-14T15:34:49;7.60;99.90
6724;DHT22;3399;52.530;13.304;2023-02-14T15:37:15;7.60;99.90
6724;DHT22;3399;52.530;13.304;2023-02-14T15:39:48;7.60;99.90
6724;DHT22;3399;52.530;13.304;2023-02-14T15:42:25;7.60;99.90
6724;DHT22;3399;52.530;13.304;2023-02-14T15:45:22;7.40;99.90
6724;DHT22;3399;52.530;13.304;2023-02-14T15:47:55;7.40;99.90
6724;DHT22;3399;52.530;13.304;2023-02-14T15:50:24;7.40;99.90
6724;DHT22;3399;52.530;13.304;2023-02-14T15:52:53;7.40;99.90
6724;DHT22;3399;52.530;13.304;2023-02-14T15:55:25;7.40;99.90
6724;DHT22;3399;52.530;13.304;2023-02-14T15:58:04;7.40;99.90
6724;DHT22;3399;52.530;13.304;2023-02-14T16:00:30;7.30;99.90
6724;DHT22;3399;52.530;13.304;2023-02-14T16:03:06;7.30;99.90
6724;DHT22;3399;52.530;13.304;2023-02-14T16:05:32;7.30;99.90
6724;DHT22;3399;52.530;13.304;2023-02-14T16:10:35;7.30;99.90
6724;DHT22;3399;52.530;13.304;2023-02-14T16:15:33;7.20;99.90
6724;DHT22;3399;52.530;13.304;2023-02-14T16:18:00;7.20;99.90
6724;DHT22;3399;52.530;13.304;2023-02-14T16:23:32;7.00;99.90
6724;DHT22;3399;52.530;13.304;2023-02-14T16:25:59;6.90;99.90
6724;DHT22;3399;52.530;13.304;2023-02-14T16:28:28;7.00;99.90
6724;DHT22;3399;52.530;13.304;2023-02-14T16:30:56;7.00;99.90
6724;DHT22;3399;52.530;13.304;2023-02-14T16:33:26;7.00;99.90
6724;DHT22;3399;52.530;13.304;2023-02-14T16:35:53;7.00;99.90
6724;DHT22;3399;52.530;13.304;2023-02-14T16:38:19;7.00;99.90
6724;DHT22;3399;52.530;13.304;2023-02-14T16:40:48;6.90;99.90
6724;DHT22;3399;52.530;13.304;2023-02-14T16:43:15;6.90;99.90
6724;DHT22;3399;52.530;13.304;2023-02-14T16:45:41;6.90;99.90
6724;DHT22;3399;52.530;13.304;2023-02-14T16:48:07;6.80;99.90
6724;DHT22;3399;52.530;13.304;2023-02-14T16:50:34;6.90;99.90
6724;DHT22;3399;52.530;13.304;2023-02-14T16:53:00;6.80;99.90
6724;DHT22;3399;52.530;13.304;2023-02-14T16:55:26;6.90;99.90
6724;DHT22;3399;52.530;13.304;2023-02-14T16:57:54;6.90;99.90
6724;DHT22;3399;52.530;13.304;2023-02-14T17:00:20;6.90;99.90
6724;DHT22;3399;52.530;13.304;2023-02-14T17:02:46;6.80;99.90
6724;DHT22;3399;52.530;13.304;2023-02-14T17:05:12;6.80;99.90
6724;DHT22;3399;52.530;13.304;2023-02-14T17:07:41;6.80;99.90
6724;DHT22;3399;52.530;13.304;2023-02-14T17:10:17;6.80;99.90
6724;DHT22;3399;52.530;13.304;2023-02-14T17:12:44;6.80;99.90
6724;DHT22;3399;52.530;13.304;2023-02-14T17:15:17;6.80;99.90
6724;DHT22;3399;52.530;13.304;2023-02-14T17:17:45;6.80;99.90
6724;DHT22;3399;52.530;13.304;2023-02-14T17:20:12;6.70;99.90
6724;DHT22;3399;52.530;13.304;2023-02-14T17:22:38;6.70;99.90
6724;DHT22;3399;52.530;13.304;2023-02-14T17:25:07;6.60;99.90
6724;DHT22;3399;52.530;13.304;2023-02-14T17:27:32;6.70;99.90
6724;DHT22;3399;52.530;13.304;2023-02-14T17:29:58;6.70;99.90
6724;DHT22;3399;52.530;13.304;2023-02-14T17:32:23;6.70;99.90
6724;DHT22;3399;52.530;13.304;2023-02-14T17:34:49;6.70;99.90
6724;DHT22;3399;52.530;13.304;2023-02-14T17:37:14;6.70;99.90
6724;DHT22;3399;52.530;13.304;2023-02-14T17:39:40;6.70;99.90
6724;DHT22;3399;52.530;13.304;2023-02-14T17:42:05;6.70;99.90
6724;DHT22;3399;52.530;13.304;2023-02-14T17:44:30;6.70;99.90
6724;DHT22;3399;52.530;13.304;2023-02-14T17:47:00;6.60;99.90
6724;DHT22;3399;52.530;13.304;2023-02-14T17:49:26;6.50;99.90
6724;DHT22;3399;52.530;13.304;2023-02-14T17:51:52;6.50;99.90
6724;DHT22;3399;52.530;13.304;2023-02-14T17:54:17;6.50;99.90
6724;DHT22;3399;52.530;13.304;2023-02-14T17:56:43;6.50;99.90
6724;DHT22;3399;52.530;13.304;2023-02-14T17:59:08;6.60;99.90
6724;DHT22;3399;52.530;13.304;2023-02-14T18:01:34;6.70;99.90
6724;DHT22;3399;52.530;13.304;2023-02-14T18:04:00;6.70;99.90
6724;DHT22;3399;52.530;13.304;2023-02-14T18:06:26;6.60;99.90
6724;DHT22;3399;52.530;13.304;2023-02-14T18:08:52;6.50;99.90